Startpagina
METAR-TAF:

METAR-TAF

Vliegvelden :

Vijayawada, India

breedte: 16-31-44N, lengte: 80-47-45E, hoogte: 25 m

Actueel weer

Dit bericht is 35 minuten geleden gemaakt, om 13:00 UTC
Wind 3 kt uit het westen
Temperatuur 30°C
Vochtigheid 75%
Druk 1002 hPa
Zicht: 5000 m
Verspreide wolken op 2000 ft
Gebroken wolken op 10000 ft
Heiigheid

METAR: VOBZ 191300Z 28003KT 5000 HZ SCT020 BKN100 30/25 Q1002 NOSIG

Tijdstip: 19:05 (13:35 UTC)


TAF: ontbreekt

Waarnemingen en weersverwachtingen van meer dan 4000 vliegvelden (METAR en TAF).

De beschikbare stations zijn de gele en rode punten op de kaart.

Ga met uw muis naar het station om de naam te zien.

Klik dan om waarnemingen en weersverwachtingen te zien.

kaart wijzigen: klik op de groene knoppen met een zwart kruis om in te zoomen, op de groene knop met een streepje om uit te zoomen of op de groene pijlen voor aangrenzende kaarten.


METAR-TAF: